Disclaimer

Please do not use the information listed here in-flight or in-navigation, as they are not provided to us by the airports but are provided by volunteers, so they might be outdated.

Search


Regions


Airport information page

Radio informations:
HANDLING - 123.4 MHz

Airport informations:
Latitude: 56° 17' 50.85" N
Longitude: 009° 07' 28.66" E
Elevation: 170 feet - 52 meters
Operating hours: Remarks
Operating agency: Military-civil joint use airport
Timezone: UTC+1(+2DT) - Last Sunday in March to last Sunday in October
Fuel: JP-4, Wide cut turbine fuel MIL Spec T-5624

Jet A1, without icing nhibitor.

100/130 MIL Spec, low lead, aviation gasoline (BLUE)

Runway information:
04/22 - 2936 x 50 feet< - >895 x 15 meters
09/27 - 2789 x 197 feet< - >850 x 60 meters
09R/27L - 9607 x 150 feet< - >2928 x 46 meters
09L/27R - 9816 x 75 feet< - >2992 x 23 meters
14/32 - 2296 x 60 feet< - >700 x 18 meters

Recent METARs:
EKKA 181950Z AUTO 08009KT 9999NDV OVC016/// 06/03 Q1035
EKKA 182020Z AUTO 08008KT 360V100 9999NDV OVC017/// 06/03 Q1035
EKKA 182050Z AUTO 09011KT 9999NDV OVC018/// 06/03 Q1035

Airport on the map: